createdAt,value
2022-08-16T00:02:13.112Z,16.67
2022-08-16T00:07:37.956Z,16.67
2022-08-16T00:13:01.716Z,17.50
2022-08-16T00:18:29.472Z,21.63
2022-08-16T00:23:54.552Z,19.38
2022-08-16T00:29:18.561Z,18.17
2022-08-16T00:34:52.224Z,19.20
2022-08-16T00:40:34.794Z,22.33
2022-08-16T00:46:34.365Z,20.73
2022-08-16T00:51:53.641Z,19.67
2022-08-16T00:57:20.179Z,29.00
2022-08-16T01:02:49.001Z,20.70
2022-08-16T01:08:36.442Z,20.67
2022-08-16T01:14:03.297Z,27.98
2022-08-16T01:19:31.097Z,20.33
2022-08-16T01:24:58.515Z,25.95
2022-08-16T01:30:26.188Z,31.63
2022-08-16T01:35:53.865Z,33.85
2022-08-16T01:41:23.819Z,32.35
2022-08-16T01:46:49.714Z,28.92
2022-08-16T01:52:28.264Z,31.02
2022-08-16T01:58:00.686Z,25.25
2022-08-16T02:03:26.697Z,27.15
2022-08-16T02:08:51.194Z,27.45
2022-08-16T02:14:18.402Z,25.98
2022-08-16T02:19:59.407Z,25.38
2022-08-16T02:25:24.703Z,23.02
2022-08-16T02:31:11.413Z,28.80
2022-08-16T02:36:47.814Z,19.55
2022-08-16T02:42:15.397Z,22.35
2022-08-16T02:48:00.619Z,25.50
2022-08-16T02:53:27.399Z,25.13
2022-08-16T02:58:52.747Z,28.13
2022-08-16T03:04:40.734Z,25.27
2022-08-16T03:10:01.237Z,21.80
2022-08-16T03:15:27.726Z,25.58
2022-08-16T03:20:55.644Z,32.97
2022-08-16T03:26:19.627Z,42.90
2022-08-16T03:31:44.626Z,33.30
2022-08-16T03:37:18.078Z,35.80
2022-08-16T03:43:00.329Z,51.30
2022-08-16T03:48:36.606Z,40.90
2022-08-16T03:54:12.316Z,40.65
2022-08-16T03:59:37.631Z,42.67
2022-08-16T04:05:10.641Z,35.38
2022-08-16T04:10:38.125Z,37.22
2022-08-16T04:16:03.130Z,35.75
2022-08-16T04:21:30.751Z,36.03
2022-08-16T04:26:59.512Z,34.10
2022-08-16T04:32:22.746Z,38.08
2022-08-16T04:37:53.738Z,37.58
2022-08-16T04:43:25.532Z,43.15
2022-08-16T04:48:50.686Z,34.38
2022-08-16T04:54:15.055Z,39.65
2022-08-16T04:59:44.571Z,32.60
2022-08-16T05:05:08.899Z,38.75
2022-08-16T05:10:41.157Z,36.85
2022-08-16T05:16:09.923Z,42.03
2022-08-16T05:21:38.528Z,36.17
2022-08-16T05:27:11.499Z,40.58
2022-08-16T05:32:47.349Z,32.00
2022-08-16T05:38:32.517Z,32.55
2022-08-16T05:44:00.241Z,38.15
2022-08-16T05:49:39.632Z,38.50
2022-08-16T05:55:05.266Z,37.50
2022-08-16T06:00:31.367Z,38.58
2022-08-16T06:05:55.924Z,39.25
2022-08-16T06:11:25.671Z,37.15
2022-08-16T06:16:54.297Z,45.65
2022-08-16T06:22:39.064Z,36.90
2022-08-16T06:28:08.386Z,37.78
2022-08-16T06:33:41.557Z,39.88
2022-08-16T06:39:08.281Z,38.03
2022-08-16T06:44:53.219Z,44.75
2022-08-16T06:50:37.460Z,35.50
2022-08-16T06:56:14.483Z,39.50
2022-08-16T07:01:58.787Z,39.80
2022-08-16T07:07:25.102Z,44.80
2022-08-16T07:13:04.338Z,38.35
2022-08-16T07:18:36.966Z,30.63
2022-08-16T07:24:06.064Z,32.65
2022-08-16T07:29:32.749Z,33.08
2022-08-16T07:34:57.239Z,34.55
2022-08-16T07:40:49.054Z,26.27
2022-08-16T07:46:39.232Z,26.88
2022-08-16T07:51:56.009Z,27.60
2022-08-16T07:57:21.883Z,27.15
2022-08-16T08:02:52.190Z,23.73
2022-08-16T08:08:51.731Z,21.52
2022-08-16T08:14:06.931Z,23.17
2022-08-16T08:19:40.541Z,23.98
2022-08-16T08:25:07.798Z,27.60
2022-08-16T08:30:52.112Z,25.33
2022-08-16T08:36:33.335Z,26.23
2022-08-16T08:42:03.519Z,24.27
2022-08-16T08:47:27.788Z,16.88
2022-08-16T08:52:53.860Z,18.52
2022-08-16T08:58:18.179Z,12.73
2022-08-16T09:04:03.645Z,15.65
2022-08-16T09:09:33.965Z,16.88
2022-08-16T09:15:01.893Z,10.23
2022-08-16T09:20:29.915Z,18.27
2022-08-16T09:25:54.720Z,11.52
2022-08-16T09:31:18.866Z,14.32
2022-08-16T09:36:46.058Z,16.60
2022-08-16T09:42:11.279Z,11.77
2022-08-16T09:47:56.458Z,14.73
2022-08-16T09:53:23.319Z,11.30
2022-08-16T09:59:05.826Z,12.05
2022-08-16T10:04:44.322Z,13.70
2022-08-16T10:10:18.937Z,14.98
2022-08-16T10:15:59.563Z,17.15
2022-08-16T10:21:23.564Z,15.52
2022-08-16T10:27:18.693Z,29.17
2022-08-16T10:32:32.065Z,16.65
2022-08-16T10:37:55.895Z,12.95
2022-08-16T10:43:19.208Z,12.30
2022-08-16T10:48:47.107Z,11.88
2022-08-16T10:54:29.692Z,8.82
2022-08-16T10:59:58.315Z,14.65
2022-08-16T11:05:24.070Z,17.10
2022-08-16T11:11:14.276Z,18.02
2022-08-16T11:22:39.650Z,12.98
2022-08-16T11:28:04.023Z,14.57
2022-08-16T11:33:53.240Z,13.75
2022-08-16T11:39:11.672Z,14.18
2022-08-16T11:44:45.368Z,24.33
2022-08-16T11:50:17.029Z,16.92
2022-08-16T11:55:44.061Z,21.17
2022-08-16T12:01:10.739Z,19.63
2022-08-16T12:06:34.027Z,12.35
2022-08-16T12:12:03.161Z,11.40
2022-08-16T12:17:26.503Z,13.75
2022-08-16T12:22:51.710Z,10.15
2022-08-16T12:28:17.463Z,11.50
2022-08-16T12:34:00.309Z,13.32
2022-08-16T12:39:23.890Z,10.02
2022-08-16T12:44:53.742Z,10.52
2022-08-16T12:50:16.941Z,17.23
2022-08-16T12:55:43.764Z,15.50
2022-08-16T13:01:12.179Z,17.52
2022-08-16T13:06:36.339Z,11.43
2022-08-16T13:12:03.773Z,21.48
2022-08-16T13:17:31.791Z,14.57
2022-08-16T13:23:03.512Z,18.40
2022-08-16T13:28:28.146Z,16.63
2022-08-16T13:33:54.447Z,15.77
2022-08-16T13:39:22.629Z,17.23
2022-08-16T13:44:55.875Z,16.98
2022-08-16T13:50:31.365Z,19.08
2022-08-16T13:56:05.248Z,19.08
2022-08-16T14:01:28.517Z,25.48
2022-08-16T14:06:56.418Z,19.25
2022-08-16T14:12:24.988Z,24.90
2022-08-16T14:18:15.469Z,22.95
2022-08-16T14:23:34.734Z,22.77
2022-08-16T14:29:03.910Z,20.67
2022-08-16T14:34:29.100Z,19.90
2022-08-16T14:39:54.621Z,20.25
2022-08-16T14:45:21.620Z,28.48
2022-08-16T14:50:45.892Z,21.70
2022-08-16T14:56:17.292Z,19.70
2022-08-16T15:01:58.670Z,21.00
2022-08-16T15:07:23.753Z,22.33
2022-08-16T15:12:48.178Z,15.65
2022-08-16T15:18:13.863Z,13.63
2022-08-16T15:23:46.682Z,19.58
2022-08-16T15:29:11.310Z,21.70
2022-08-16T15:34:36.301Z,22.30
2022-08-16T15:39:59.558Z,21.40
2022-08-16T15:45:38.645Z,16.88
2022-08-16T15:51:05.639Z,19.17
2022-08-16T15:56:31.341Z,19.63
2022-08-16T16:02:29.215Z,20.13
2022-08-16T16:07:56.810Z,15.45
2022-08-16T16:13:34.145Z,28.70
2022-08-16T16:19:00.663Z,15.38
2022-08-16T16:24:31.465Z,19.67
2022-08-16T16:29:58.137Z,20.73
2022-08-16T16:35:27.680Z,19.58
2022-08-16T16:40:55.882Z,19.80
2022-08-16T16:46:41.383Z,19.15
2022-08-16T16:52:07.107Z,22.52
2022-08-16T16:57:48.146Z,21.80
2022-08-16T17:03:17.023Z,16.27
2022-08-16T17:08:43.039Z,18.23
2022-08-16T17:14:13.920Z,21.27
2022-08-16T17:19:50.907Z,20.15
2022-08-16T17:25:15.548Z,22.15
2022-08-16T17:30:45.134Z,22.02
2022-08-16T17:36:09.590Z,23.98
2022-08-16T17:41:54.169Z,20.27
2022-08-16T17:47:17.396Z,24.48
2022-08-16T17:52:40.679Z,23.13
2022-08-16T17:58:23.266Z,23.85
2022-08-16T18:04:07.205Z,21.95
2022-08-16T18:09:30.684Z,24.27
2022-08-16T18:14:59.890Z,28.40
2022-08-16T18:20:41.608Z,25.35
2022-08-16T18:26:07.034Z,28.42
2022-08-16T18:31:31.874Z,26.27
2022-08-16T18:36:55.048Z,27.58
2022-08-16T18:42:18.553Z,25.27
2022-08-16T18:47:43.452Z,25.35
2022-08-16T18:53:09.339Z,31.10
2022-08-16T18:58:33.869Z,30.83
2022-08-16T19:03:58.424Z,33.22
2022-08-16T19:09:21.779Z,29.95
2022-08-16T19:14:45.521Z,25.48
2022-08-16T19:20:11.598Z,29.73
2022-08-16T19:25:46.409Z,29.17
2022-08-16T19:31:14.794Z,28.92
2022-08-16T19:36:40.834Z,26.58
2022-08-16T19:42:12.158Z,30.77
2022-08-16T19:47:35.602Z,27.67
2022-08-16T19:53:13.071Z,30.02
2022-08-16T19:59:01.884Z,34.05
2022-08-16T20:04:25.848Z,27.42
2022-08-16T20:09:50.871Z,21.63
2022-08-16T20:15:17.339Z,21.85
2022-08-16T20:21:08.673Z,23.58
2022-08-16T20:26:34.681Z,22.63
2022-08-16T20:31:57.923Z,23.23
2022-08-16T20:37:22.213Z,18.50
2022-08-16T20:42:50.701Z,20.75
2022-08-16T20:48:16.441Z,21.55
2022-08-16T20:54:15.065Z,20.83
2022-08-16T20:59:57.841Z,23.67
2022-08-16T21:12:37.611Z,24.50
2022-08-16T21:18:02.795Z,21.88
2022-08-16T21:23:25.953Z,28.90
2022-08-16T21:28:49.137Z,23.65
2022-08-16T21:34:13.894Z,28.27
2022-08-16T21:39:37.160Z,27.13
2022-08-16T21:45:00.385Z,23.85
2022-08-16T21:50:24.940Z,29.80
2022-08-16T21:55:50.214Z,26.23
2022-08-16T22:01:13.417Z,28.73
2022-08-16T22:06:38.234Z,30.35
2022-08-16T22:12:01.387Z,25.92
2022-08-16T22:17:24.455Z,30.95
2022-08-16T22:22:50.077Z,28.10
2022-08-16T22:28:14.523Z,24.85
2022-08-16T22:33:37.860Z,34.05
2022-08-16T22:39:07.336Z,33.72
2022-08-16T22:44:30.471Z,33.55
2022-08-16T22:49:53.561Z,29.70
2022-08-16T22:55:19.200Z,35.65
2022-08-16T23:00:43.821Z,29.00
2022-08-16T23:06:07.573Z,32.88
2022-08-16T23:11:32.682Z,29.63
2022-08-16T23:16:56.515Z,36.67
2022-08-16T23:22:24.754Z,31.95
2022-08-16T23:27:49.805Z,29.42
2022-08-16T23:33:14.705Z,35.03
2022-08-16T23:38:39.515Z,35.40
2022-08-16T23:44:42.280Z,32.35
2022-08-16T23:50:01.003Z,34.80
2022-08-16T23:55:27.663Z,39.15
